sensor_id;sensor_type;location;lat;lon;timestamp;temperature;humidity
68981;SHT35;56033;51.880;12.632;2022-10-16T00:01:54;19.90;61.68
68981;SHT35;56033;51.880;12.632;2022-10-16T00:04:19;19.89;61.77
68981;SHT35;56033;51.880;12.632;2022-10-16T00:06:45;19.94;61.69
68981;SHT35;56033;51.880;12.632;2022-10-16T00:09:10;19.93;61.63
68981;SHT35;56033;51.880;12.632;2022-10-16T00:11:38;19.96;61.62
68981;SHT35;56033;51.880;12.632;2022-10-16T00:14:07;19.96;61.64
68981;SHT35;56033;51.880;12.632;2022-10-16T00:16:34;19.90;61.64
68981;SHT35;56033;51.880;12.632;2022-10-16T00:18:59;19.91;61.57
68981;SHT35;56033;51.880;12.632;2022-10-16T00:21:27;19.91;61.63
68981;SHT35;56033;51.880;12.632;2022-10-16T00:23:58;19.89;61.68
68981;SHT35;56033;51.880;12.632;2022-10-16T00:26:27;19.90;61.52
68981;SHT35;56033;51.880;12.632;2022-10-16T00:28:53;19.91;61.58
68981;SHT35;56033;51.880;12.632;2022-10-16T00:31:20;19.87;61.63
68981;SHT35;56033;51.880;12.632;2022-10-16T00:33:46;19.91;61.46
68981;SHT35;56033;51.880;12.632;2022-10-16T00:36:14;19.87;61.68
68981;SHT35;56033;51.880;12.632;2022-10-16T00:38:40;19.87;61.62
68981;SHT35;56033;51.880;12.632;2022-10-16T00:41:07;19.86;61.52
68981;SHT35;56033;51.880;12.632;2022-10-16T00:43:41;19.83;61.81
68981;SHT35;56033;51.880;12.632;2022-10-16T00:46:16;19.87;61.58
68981;SHT35;56033;51.880;12.632;2022-10-16T00:48:47;19.86;61.32
68981;SHT35;56033;51.880;12.632;2022-10-16T00:51:13;19.79;61.36
68981;SHT35;56033;51.880;12.632;2022-10-16T00:53:39;19.83;61.55
68981;SHT35;56033;51.880;12.632;2022-10-16T00:56:05;19.81;61.65
68981;SHT35;56033;51.880;12.632;2022-10-16T00:58:31;19.80;61.72
68981;SHT35;56033;51.880;12.632;2022-10-16T01:00:56;19.81;61.55
68981;SHT35;56033;51.880;12.632;2022-10-16T01:03:30;19.80;61.69
68981;SHT35;56033;51.880;12.632;2022-10-16T01:14:40;19.81;61.05
68981;SHT35;56033;51.880;12.632;2022-10-16T01:17:13;19.76;61.45
68981;SHT35;56033;51.880;12.632;2022-10-16T01:20:35;19.77;61.33
68981;SHT35;56033;51.880;12.632;2022-10-16T01:22:55;19.76;61.47
68981;SHT35;56033;51.880;12.632;2022-10-16T01:28:13;19.73;61.66
68981;SHT35;56033;51.880;12.632;2022-10-16T01:30:42;19.73;61.55
68981;SHT35;56033;51.880;12.632;2022-10-16T01:35:54;19.73;61.61
68981;SHT35;56033;51.880;12.632;2022-10-16T01:38:30;19.72;61.49
68981;SHT35;56033;51.880;12.632;2022-10-16T01:41:01;19.69;61.56
68981;SHT35;56033;51.880;12.632;2022-10-16T01:43:33;19.72;61.63
68981;SHT35;56033;51.880;12.632;2022-10-16T01:46:01;19.66;61.60
68981;SHT35;56033;51.880;12.632;2022-10-16T01:48:27;19.65;61.58
68981;SHT35;56033;51.880;12.632;2022-10-16T01:51:01;19.69;61.45
68981;SHT35;56033;51.880;12.632;2022-10-16T01:53:29;19.63;61.53
68981;SHT35;56033;51.880;12.632;2022-10-16T01:55:55;19.62;61.47
68981;SHT35;56033;51.880;12.632;2022-10-16T01:58:23;19.62;61.67
68981;SHT35;56033;51.880;12.632;2022-10-16T02:00:51;19.62;61.45
68981;SHT35;56033;51.880;12.632;2022-10-16T02:03:19;19.67;61.53
68981;SHT35;56033;51.880;12.632;2022-10-16T02:05:51;19.65;61.43
68981;SHT35;56033;51.880;12.632;2022-10-16T02:08:19;19.63;61.59
68981;SHT35;56033;51.880;12.632;2022-10-16T02:10:45;19.62;61.53
68981;SHT35;56033;51.880;12.632;2022-10-16T02:13:15;19.56;61.69
68981;SHT35;56033;51.880;12.632;2022-10-16T02:15:42;19.49;61.59
68981;SHT35;56033;51.880;12.632;2022-10-16T02:18:08;19.48;61.70
68981;SHT35;56033;51.880;12.632;2022-10-16T02:20:42;19.48;61.77
68981;SHT35;56033;51.880;12.632;2022-10-16T02:23:12;19.45;61.97
68981;SHT35;56033;51.880;12.632;2022-10-16T02:25:41;19.45;62.16
68981;SHT35;56033;51.880;12.632;2022-10-16T02:28:17;19.46;62.01
68981;SHT35;56033;51.880;12.632;2022-10-16T02:30:55;19.45;62.11
68981;SHT35;56033;51.880;12.632;2022-10-16T02:33:23;19.44;62.28
68981;SHT35;56033;51.880;12.632;2022-10-16T02:35:51;19.39;62.30
68981;SHT35;56033;51.880;12.632;2022-10-16T02:38:17;19.39;62.33
68981;SHT35;56033;51.880;12.632;2022-10-16T02:40:43;19.38;62.37
68981;SHT35;56033;51.880;12.632;2022-10-16T02:43:09;19.38;62.38
68981;SHT35;56033;51.880;12.632;2022-10-16T02:45:35;19.36;62.39
68981;SHT35;56033;51.880;12.632;2022-10-16T02:48:00;19.38;62.41
68981;SHT35;56033;51.880;12.632;2022-10-16T02:50:26;19.36;62.35
68981;SHT35;56033;51.880;12.632;2022-10-16T02:52:51;19.36;62.43
68981;SHT35;56033;51.880;12.632;2022-10-16T02:55:17;19.35;62.47
68981;SHT35;56033;51.880;12.632;2022-10-16T02:57:43;19.35;62.37
68981;SHT35;56033;51.880;12.632;2022-10-16T03:00:14;19.32;62.50
68981;SHT35;56033;51.880;12.632;2022-10-16T03:02:39;19.34;62.42
68981;SHT35;56033;51.880;12.632;2022-10-16T03:05:05;19.34;62.49
68981;SHT35;56033;51.880;12.632;2022-10-16T03:07:31;19.32;62.47
68981;SHT35;56033;51.880;12.632;2022-10-16T03:09:56;19.31;62.44
68981;SHT35;56033;51.880;12.632;2022-10-16T03:12:25;19.29;62.44
68981;SHT35;56033;51.880;12.632;2022-10-16T03:14:51;19.31;62.45
68981;SHT35;56033;51.880;12.632;2022-10-16T03:17:16;19.31;62.42
68981;SHT35;56033;51.880;12.632;2022-10-16T03:19:42;19.28;62.46
68981;SHT35;56033;51.880;12.632;2022-10-16T03:22:07;19.29;62.43
68981;SHT35;56033;51.880;12.632;2022-10-16T03:24:33;19.28;62.48
68981;SHT35;56033;51.880;12.632;2022-10-16T03:26:59;19.25;62.50
68981;SHT35;56033;51.880;12.632;2022-10-16T03:29:24;19.24;62.52
68981;SHT35;56033;51.880;12.632;2022-10-16T03:31:51;19.25;62.50
68981;SHT35;56033;51.880;12.632;2022-10-16T03:34:16;19.25;62.48
68981;SHT35;56033;51.880;12.632;2022-10-16T03:36:41;19.25;62.44
68981;SHT35;56033;51.880;12.632;2022-10-16T03:39:07;19.22;62.54
68981;SHT35;56033;51.880;12.632;2022-10-16T03:41:32;19.25;62.49
68981;SHT35;56033;51.880;12.632;2022-10-16T03:43:57;19.22;62.50
68981;SHT35;56033;51.880;12.632;2022-10-16T03:46:23;19.22;62.51
68981;SHT35;56033;51.880;12.632;2022-10-16T03:48:48;19.21;62.46
68981;SHT35;56033;51.880;12.632;2022-10-16T03:51:14;19.22;62.51
68981;SHT35;56033;51.880;12.632;2022-10-16T03:53:39;19.21;62.46
68981;SHT35;56033;51.880;12.632;2022-10-16T03:56:05;19.19;62.53
68981;SHT35;56033;51.880;12.632;2022-10-16T03:58:30;19.18;62.49
68981;SHT35;56033;51.880;12.632;2022-10-16T04:00:56;19.19;62.49
68981;SHT35;56033;51.880;12.632;2022-10-16T04:03:21;19.21;62.54
68981;SHT35;56033;51.880;12.632;2022-10-16T04:05:48;19.19;62.52
68981;SHT35;56033;51.880;12.632;2022-10-16T04:08:13;19.19;62.50
68981;SHT35;56033;51.880;12.632;2022-10-16T04:10:39;19.18;62.51
68981;SHT35;56033;51.880;12.632;2022-10-16T04:13:04;19.17;62.50
68981;SHT35;56033;51.880;12.632;2022-10-16T04:15:30;19.17;62.50
68981;SHT35;56033;51.880;12.632;2022-10-16T04:17:55;19.17;62.53
68981;SHT35;56033;51.880;12.632;2022-10-16T04:20:21;19.14;62.52
68981;SHT35;56033;51.880;12.632;2022-10-16T04:22:46;19.14;62.52
68981;SHT35;56033;51.880;12.632;2022-10-16T04:25:11;19.11;62.53
68981;SHT35;56033;51.880;12.632;2022-10-16T04:27:38;19.14;62.52
68981;SHT35;56033;51.880;12.632;2022-10-16T04:30:03;19.12;62.46
68981;SHT35;56033;51.880;12.632;2022-10-16T04:32:29;19.12;62.50
68981;SHT35;56033;51.880;12.632;2022-10-16T04:34:55;19.12;62.43
68981;SHT35;56033;51.880;12.632;2022-10-16T04:37:24;19.12;62.51
68981;SHT35;56033;51.880;12.632;2022-10-16T04:39:50;19.10;62.44
68981;SHT35;56033;51.880;12.632;2022-10-16T04:42:16;19.12;62.51
68981;SHT35;56033;51.880;12.632;2022-10-16T04:44:41;19.11;62.52
68981;SHT35;56033;51.880;12.632;2022-10-16T04:47:07;19.07;62.54
68981;SHT35;56033;51.880;12.632;2022-10-16T04:49:32;19.08;62.54
68981;SHT35;56033;51.880;12.632;2022-10-16T04:51:57;19.08;62.57
68981;SHT35;56033;51.880;12.632;2022-10-16T04:54:23;19.08;62.52
68981;SHT35;56033;51.880;12.632;2022-10-16T04:56:48;19.08;62.51
68981;SHT35;56033;51.880;12.632;2022-10-16T04:59:17;19.10;62.47
68981;SHT35;56033;51.880;12.632;2022-10-16T05:01:43;19.06;62.57
68981;SHT35;56033;51.880;12.632;2022-10-16T05:04:09;19.07;62.49
68981;SHT35;56033;51.880;12.632;2022-10-16T05:06:34;19.06;62.53
68981;SHT35;56033;51.880;12.632;2022-10-16T05:08:59;19.07;62.54
68981;SHT35;56033;51.880;12.632;2022-10-16T05:11:25;19.04;62.51
68981;SHT35;56033;51.880;12.632;2022-10-16T05:13:50;19.04;62.49
68981;SHT35;56033;51.880;12.632;2022-10-16T05:16:16;19.06;62.55
68981;SHT35;56033;51.880;12.632;2022-10-16T05:18:41;19.06;62.50
68981;SHT35;56033;51.880;12.632;2022-10-16T05:21:06;19.06;62.51
68981;SHT35;56033;51.880;12.632;2022-10-16T05:23:32;19.04;62.51
68981;SHT35;56033;51.880;12.632;2022-10-16T05:25:59;19.03;62.52
68981;SHT35;56033;51.880;12.632;2022-10-16T05:28:26;19.03;62.46
68981;SHT35;56033;51.880;12.632;2022-10-16T05:30:51;19.01;62.55
68981;SHT35;56033;51.880;12.632;2022-10-16T05:33:17;19.00;62.53
68981;SHT35;56033;51.880;12.632;2022-10-16T05:35:42;19.00;62.55
68981;SHT35;56033;51.880;12.632;2022-10-16T05:38:09;19.03;62.55
68981;SHT35;56033;51.880;12.632;2022-10-16T05:40:34;18.99;62.56
68981;SHT35;56033;51.880;12.632;2022-10-16T05:43:00;19.00;62.51
68981;SHT35;56033;51.880;12.632;2022-10-16T05:45:26;18.99;62.57
68981;SHT35;56033;51.880;12.632;2022-10-16T05:47:51;19.01;62.48
68981;SHT35;56033;51.880;12.632;2022-10-16T05:50:17;18.99;62.52
68981;SHT35;56033;51.880;12.632;2022-10-16T05:52:42;19.00;62.51
68981;SHT35;56033;51.880;12.632;2022-10-16T05:55:08;18.97;62.55
68981;SHT35;56033;51.880;12.632;2022-10-16T05:57:33;18.96;62.47
68981;SHT35;56033;51.880;12.632;2022-10-16T05:59:59;18.96;62.52
68981;SHT35;56033;51.880;12.632;2022-10-16T06:02:24;18.97;62.40
68981;SHT35;56033;51.880;12.632;2022-10-16T06:04:51;18.94;62.51
68981;SHT35;56033;51.880;12.632;2022-10-16T06:07:18;18.94;62.54
68981;SHT35;56033;51.880;12.632;2022-10-16T06:09:44;18.94;62.52
68981;SHT35;56033;51.880;12.632;2022-10-16T06:12:12;18.93;62.51
68981;SHT35;56033;51.880;12.632;2022-10-16T06:14:38;18.94;62.50
68981;SHT35;56033;51.880;12.632;2022-10-16T06:17:03;18.94;62.52
68981;SHT35;56033;51.880;12.632;2022-10-16T06:19:29;18.93;62.48
68981;SHT35;56033;51.880;12.632;2022-10-16T06:21:54;18.93;62.44
68981;SHT35;56033;51.880;12.632;2022-10-16T06:24:19;18.93;62.37
68981;SHT35;56033;51.880;12.632;2022-10-16T06:26:45;18.93;62.40
68981;SHT35;56033;51.880;12.632;2022-10-16T06:29:11;18.93;62.38
68981;SHT35;56033;51.880;12.632;2022-10-16T06:31:36;18.89;62.50
68981;SHT35;56033;51.880;12.632;2022-10-16T06:34:04;18.91;62.53
68981;SHT35;56033;51.880;12.632;2022-10-16T06:36:34;18.91;62.59
68981;SHT35;56033;51.880;12.632;2022-10-16T06:39:00;18.89;62.60
68981;SHT35;56033;51.880;12.632;2022-10-16T06:41:33;18.90;62.54
68981;SHT35;56033;51.880;12.632;2022-10-16T06:43:58;18.89;62.54
68981;SHT35;56033;51.880;12.632;2022-10-16T06:46:25;18.91;62.46
68981;SHT35;56033;51.880;12.632;2022-10-16T06:48:50;18.91;62.45
68981;SHT35;56033;51.880;12.632;2022-10-16T06:51:18;18.91;62.44
68981;SHT35;56033;51.880;12.632;2022-10-16T06:53:46;18.90;62.36
68981;SHT35;56033;51.880;12.632;2022-10-16T06:56:19;18.91;62.31
68981;SHT35;56033;51.880;12.632;2022-10-16T06:58:45;18.90;62.32
68981;SHT35;56033;51.880;12.632;2022-10-16T07:01:11;18.90;62.25
68981;SHT35;56033;51.880;12.632;2022-10-16T07:03:38;18.90;62.26
68981;SHT35;56033;51.880;12.632;2022-10-16T07:06:05;18.91;62.21
68981;SHT35;56033;51.880;12.632;2022-10-16T07:08:36;18.81;63.35
68981;SHT35;56033;51.880;12.632;2022-10-16T07:11:20;18.93;62.81
68981;SHT35;56033;51.880;12.632;2022-10-16T07:13:46;18.96;62.93
68981;SHT35;56033;51.880;12.632;2022-10-16T07:16:14;18.90;63.96
68981;SHT35;56033;51.880;12.632;2022-10-16T07:18:41;18.86;64.25
68981;SHT35;56033;51.880;12.632;2022-10-16T07:21:13;18.80;65.38
68981;SHT35;56033;51.880;12.632;2022-10-16T07:23:39;18.76;65.23
68981;SHT35;56033;51.880;12.632;2022-10-16T07:26:05;18.84;64.43
68981;SHT35;56033;51.880;12.632;2022-10-16T07:28:31;18.87;63.94
68981;SHT35;56033;51.880;12.632;2022-10-16T07:31:03;18.87;63.96
68981;SHT35;56033;51.880;12.632;2022-10-16T07:33:30;18.90;63.85
68981;SHT35;56033;51.880;12.632;2022-10-16T07:35:56;18.89;63.84
68981;SHT35;56033;51.880;12.632;2022-10-16T07:38:22;18.89;63.73
68981;SHT35;56033;51.880;12.632;2022-10-16T07:40:48;18.87;63.77
68981;SHT35;56033;51.880;12.632;2022-10-16T07:43:14;18.83;63.53
68981;SHT35;56033;51.880;12.632;2022-10-16T07:45:49;18.87;63.79
68981;SHT35;56033;51.880;12.632;2022-10-16T07:48:15;18.87;63.82
68981;SHT35;56033;51.880;12.632;2022-10-16T07:50:41;18.76;64.77
68981;SHT35;56033;51.880;12.632;2022-10-16T07:53:07;18.84;63.72
68981;SHT35;56033;51.880;12.632;2022-10-16T07:55:32;18.84;63.97
68981;SHT35;56033;51.880;12.632;2022-10-16T07:57:57;18.84;63.89
68981;SHT35;56033;51.880;12.632;2022-10-16T08:00:23;18.83;64.01
68981;SHT35;56033;51.880;12.632;2022-10-16T08:02:48;18.84;63.98
68981;SHT35;56033;51.880;12.632;2022-10-16T08:05:14;18.74;64.61
68981;SHT35;56033;51.880;12.632;2022-10-16T08:07:39;18.76;64.72
68981;SHT35;56033;51.880;12.632;2022-10-16T08:10:05;18.84;64.12
68981;SHT35;56033;51.880;12.632;2022-10-16T08:12:30;18.84;64.02
68981;SHT35;56033;51.880;12.632;2022-10-16T08:14:56;18.84;64.02
68981;SHT35;56033;51.880;12.632;2022-10-16T08:17:21;18.83;64.15
68981;SHT35;56033;51.880;12.632;2022-10-16T08:19:47;19.06;63.18
68981;SHT35;56033;51.880;12.632;2022-10-16T08:22:13;18.99;63.13
68981;SHT35;56033;51.880;12.632;2022-10-16T08:24:40;19.04;62.83
68981;SHT35;56033;51.880;12.632;2022-10-16T08:27:06;19.12;62.78
68981;SHT35;56033;51.880;12.632;2022-10-16T08:29:32;19.25;62.60
68981;SHT35;56033;51.880;12.632;2022-10-16T08:31:58;19.28;62.44
68981;SHT35;56033;51.880;12.632;2022-10-16T08:34:23;19.31;62.52
68981;SHT35;56033;51.880;12.632;2022-10-16T08:36:49;19.36;62.32
68981;SHT35;56033;51.880;12.632;2022-10-16T08:39:15;19.36;62.25
68981;SHT35;56033;51.880;12.632;2022-10-16T08:41:49;19.36;62.19
68981;SHT35;56033;51.880;12.632;2022-10-16T08:49:58;19.21;62.50
68981;SHT35;56033;51.880;12.632;2022-10-16T08:52:32;19.21;62.21
68981;SHT35;56033;51.880;12.632;2022-10-16T08:54:59;19.22;62.39
68981;SHT35;56033;51.880;12.632;2022-10-16T08:57:25;19.24;62.62
68981;SHT35;56033;51.880;12.632;2022-10-16T08:59:53;19.38;62.06
68981;SHT35;56033;51.880;12.632;2022-10-16T09:02:37;19.44;61.57
68981;SHT35;56033;51.880;12.632;2022-10-16T09:05:24;19.36;61.77
68981;SHT35;56033;51.880;12.632;2022-10-16T09:15:49;19.42;61.96
68981;SHT35;56033;51.880;12.632;2022-10-16T09:20:52;19.45;61.53
68981;SHT35;56033;51.880;12.632;2022-10-16T09:23:22;19.48;61.54
68981;SHT35;56033;51.880;12.632;2022-10-16T09:25:50;19.41;61.76
68981;SHT35;56033;51.880;12.632;2022-10-16T09:28:17;19.39;61.82
68981;SHT35;56033;51.880;12.632;2022-10-16T09:30:43;19.41;61.85
68981;SHT35;56033;51.880;12.632;2022-10-16T09:33:11;19.41;61.87
68981;SHT35;56033;51.880;12.632;2022-10-16T09:35:45;19.45;61.68
68981;SHT35;56033;51.880;12.632;2022-10-16T09:38:32;19.48;61.70
68981;SHT35;56033;51.880;12.632;2022-10-16T09:41:00;19.48;61.59
68981;SHT35;56033;51.880;12.632;2022-10-16T09:43:30;19.53;61.51
68981;SHT35;56033;51.880;12.632;2022-10-16T09:45:58;19.56;61.34
68981;SHT35;56033;51.880;12.632;2022-10-16T09:48:28;19.58;61.36
68981;SHT35;56033;51.880;12.632;2022-10-16T09:50:59;19.53;61.51
68981;SHT35;56033;51.880;12.632;2022-10-16T09:53:42;19.51;61.53
68981;SHT35;56033;51.880;12.632;2022-10-16T09:56:10;19.59;61.25
68981;SHT35;56033;51.880;12.632;2022-10-16T09:58:41;19.53;61.15
68981;SHT35;56033;51.880;12.632;2022-10-16T10:01:13;19.55;61.38
68981;SHT35;56033;51.880;12.632;2022-10-16T10:03:41;19.51;61.79
68981;SHT35;56033;51.880;12.632;2022-10-16T10:06:25;19.52;61.67
68981;SHT35;56033;51.880;12.632;2022-10-16T10:09:37;19.52;61.62
68981;SHT35;56033;51.880;12.632;2022-10-16T10:14:27;19.51;61.85
68981;SHT35;56033;51.880;12.632;2022-10-16T10:17:24;19.56;61.98
68981;SHT35;56033;51.880;12.632;2022-10-16T10:20:15;19.66;61.99
68981;SHT35;56033;51.880;12.632;2022-10-16T10:22:46;19.58;62.04
68981;SHT35;56033;51.880;12.632;2022-10-16T10:27:43;19.62;62.27
68981;SHT35;56033;51.880;12.632;2022-10-16T10:33:15;19.53;62.45
68981;SHT35;56033;51.880;12.632;2022-10-16T10:51:56;19.52;62.49
68981;SHT35;56033;51.880;12.632;2022-10-16T10:54:37;19.49;62.55
68981;SHT35;56033;51.880;12.632;2022-10-16T11:02:52;19.55;62.35
68981;SHT35;56033;51.880;12.632;2022-10-16T11:05:26;19.62;62.29
68981;SHT35;56033;51.880;12.632;2022-10-16T11:10:28;19.45;62.77
68981;SHT35;56033;51.880;12.632;2022-10-16T11:13:15;19.44;62.79
68981;SHT35;56033;51.880;12.632;2022-10-16T11:15:43;19.39;62.72
68981;SHT35;56033;51.880;12.632;2022-10-16T11:18:26;19.42;62.77
68981;SHT35;56033;51.880;12.632;2022-10-16T11:20:56;19.39;62.68
68981;SHT35;56033;51.880;12.632;2022-10-16T11:23:29;19.46;62.57
68981;SHT35;56033;51.880;12.632;2022-10-16T11:26:02;19.53;62.33
68981;SHT35;56033;51.880;12.632;2022-10-16T11:28:42;19.59;62.04
68981;SHT35;56033;51.880;12.632;2022-10-16T11:36:20;19.65;62.15
68981;SHT35;56033;51.880;12.632;2022-10-16T11:38:58;19.61;62.21
68981;SHT35;56033;51.880;12.632;2022-10-16T11:46:57;19.90;61.15
68981;SHT35;56033;51.880;12.632;2022-10-16T11:49:26;19.76;61.69
68981;SHT35;56033;51.880;12.632;2022-10-16T11:57:23;19.87;61.79
68981;SHT35;56033;51.880;12.632;2022-10-16T12:00:08;19.97;61.92
68981;SHT35;56033;51.880;12.632;2022-10-16T12:08:11;20.42;60.56
68981;SHT35;56033;51.880;12.632;2022-10-16T12:10:37;20.32;60.85
68981;SHT35;56033;51.880;12.632;2022-10-16T12:16:22;20.17;61.37
68981;SHT35;56033;51.880;12.632;2022-10-16T12:18:48;20.10;61.75
68981;SHT35;56033;51.880;12.632;2022-10-16T12:21:16;20.08;61.66
68981;SHT35;56033;51.880;12.632;2022-10-16T12:23:52;20.04;61.75
68981;SHT35;56033;51.880;12.632;2022-10-16T12:26:30;19.98;61.60
68981;SHT35;56033;51.880;12.632;2022-10-16T12:29:12;20.00;61.86
68981;SHT35;56033;51.880;12.632;2022-10-16T12:31:44;20.01;61.76
68981;SHT35;56033;51.880;12.632;2022-10-16T12:34:23;20.06;62.04
68981;SHT35;56033;51.880;12.632;2022-10-16T12:36:51;20.17;61.88
68981;SHT35;56033;51.880;12.632;2022-10-16T12:42:57;20.11;61.98
68981;SHT35;56033;51.880;12.632;2022-10-16T13:26:35;20.28;61.30
68981;SHT35;56033;51.880;12.632;2022-10-16T13:29:04;20.25;61.60
68981;SHT35;56033;51.880;12.632;2022-10-16T13:31:30;20.25;61.46
68981;SHT35;56033;51.880;12.632;2022-10-16T13:33:58;20.35;61.25
68981;SHT35;56033;51.880;12.632;2022-10-16T13:36:35;20.28;61.53
68981;SHT35;56033;51.880;12.632;2022-10-16T13:39:30;20.28;61.21
68981;SHT35;56033;51.880;12.632;2022-10-16T13:42:05;20.26;61.21
68981;SHT35;56033;51.880;12.632;2022-10-16T13:44:39;20.26;60.99
68981;SHT35;56033;51.880;12.632;2022-10-16T13:47:05;20.28;60.65
68981;SHT35;56033;51.880;12.632;2022-10-16T13:49:30;20.24;60.85
68981;SHT35;56033;51.880;12.632;2022-10-16T13:51:59;20.24;60.83
68981;SHT35;56033;51.880;12.632;2022-10-16T13:54:26;20.24;60.48
68981;SHT35;56033;51.880;12.632;2022-10-16T13:56:54;20.25;60.50
68981;SHT35;56033;51.880;12.632;2022-10-16T13:59:36;20.21;60.52
68981;SHT35;56033;51.880;12.632;2022-10-16T14:02:28;20.20;60.53
68981;SHT35;56033;51.880;12.632;2022-10-16T14:04:56;20.14;60.71
68981;SHT35;56033;51.880;12.632;2022-10-16T14:07:27;20.20;60.60
68981;SHT35;56033;51.880;12.632;2022-10-16T14:09:54;20.15;60.73
68981;SHT35;56033;51.880;12.632;2022-10-16T14:12:21;20.17;60.72
68981;SHT35;56033;51.880;12.632;2022-10-16T14:14:50;20.18;60.69
68981;SHT35;56033;51.880;12.632;2022-10-16T14:17:20;20.14;60.78
68981;SHT35;56033;51.880;12.632;2022-10-16T14:19:53;20.08;61.07
68981;SHT35;56033;51.880;12.632;2022-10-16T14:24:49;20.11;61.18
68981;SHT35;56033;51.880;12.632;2022-10-16T14:30:08;20.10;61.09
68981;SHT35;56033;51.880;12.632;2022-10-16T14:32:34;20.07;61.17
68981;SHT35;56033;51.880;12.632;2022-10-16T14:34:59;20.04;61.37
68981;SHT35;56033;51.880;12.632;2022-10-16T14:37:27;20.03;61.29
68981;SHT35;56033;51.880;12.632;2022-10-16T14:39:54;19.98;61.23
68981;SHT35;56033;51.880;12.632;2022-10-16T14:42:22;20.00;61.14
68981;SHT35;56033;51.880;12.632;2022-10-16T14:44:52;19.96;61.43
68981;SHT35;56033;51.880;12.632;2022-10-16T14:47:20;19.93;61.73
68981;SHT35;56033;51.880;12.632;2022-10-16T14:49:50;19.94;61.57
68981;SHT35;56033;51.880;12.632;2022-10-16T14:52:16;19.97;61.44
68981;SHT35;56033;51.880;12.632;2022-10-16T14:54:41;20.00;61.53
68981;SHT35;56033;51.880;12.632;2022-10-16T14:57:17;20.00;61.86
68981;SHT35;56033;51.880;12.632;2022-10-16T14:59:43;19.94;62.01
68981;SHT35;56033;51.880;12.632;2022-10-16T15:04:49;20.04;60.83
68981;SHT35;56033;51.880;12.632;2022-10-16T15:07:15;20.04;60.87
68981;SHT35;56033;51.880;12.632;2022-10-16T15:09:40;20.08;60.72
68981;SHT35;56033;51.880;12.632;2022-10-16T15:12:06;20.06;61.23
68981;SHT35;56033;51.880;12.632;2022-10-16T15:14:31;19.97;61.53
68981;SHT35;56033;51.880;12.632;2022-10-16T15:16:57;19.94;61.50
68981;SHT35;56033;51.880;12.632;2022-10-16T15:19:22;20.00;61.57
68981;SHT35;56033;51.880;12.632;2022-10-16T15:21:48;19.93;61.90
68981;SHT35;56033;51.880;12.632;2022-10-16T15:24:14;19.91;61.95
68981;SHT35;56033;51.880;12.632;2022-10-16T15:26:40;19.94;61.55
68981;SHT35;56033;51.880;12.632;2022-10-16T15:29:06;19.93;61.55
68981;SHT35;56033;51.880;12.632;2022-10-16T15:31:32;19.90;61.58
68981;SHT35;56033;51.880;12.632;2022-10-16T15:33:57;19.93;61.45
68981;SHT35;56033;51.880;12.632;2022-10-16T15:36:35;19.97;61.25
68981;SHT35;56033;51.880;12.632;2022-10-16T15:39:22;19.94;61.32
68981;SHT35;56033;51.880;12.632;2022-10-16T15:41:47;19.93;61.33
68981;SHT35;56033;51.880;12.632;2022-10-16T15:44:19;19.96;61.40
68981;SHT35;56033;51.880;12.632;2022-10-16T15:46:45;19.93;61.47
68981;SHT35;56033;51.880;12.632;2022-10-16T15:49:11;19.90;61.93
68981;SHT35;56033;51.880;12.632;2022-10-16T15:51:40;19.94;62.10
68981;SHT35;56033;51.880;12.632;2022-10-16T15:54:07;19.90;61.72
68981;SHT35;56033;51.880;12.632;2022-10-16T15:56:32;19.91;61.63
68981;SHT35;56033;51.880;12.632;2022-10-16T15:58:59;19.91;61.90
68981;SHT35;56033;51.880;12.632;2022-10-16T16:01:26;19.98;61.48
68981;SHT35;56033;51.880;12.632;2022-10-16T16:03:55;20.01;61.40
68981;SHT35;56033;51.880;12.632;2022-10-16T16:06:20;20.13;60.83
68981;SHT35;56033;51.880;12.632;2022-10-16T16:08:46;20.17;60.62
68981;SHT35;56033;51.880;12.632;2022-10-16T16:11:13;20.10;60.85
68981;SHT35;56033;51.880;12.632;2022-10-16T16:13:40;20.08;61.52
68981;SHT35;56033;51.880;12.632;2022-10-16T16:16:11;20.07;61.72
68981;SHT35;56033;51.880;12.632;2022-10-16T16:18:37;20.24;61.59
68981;SHT35;56033;51.880;12.632;2022-10-16T16:21:03;20.24;61.42
68981;SHT35;56033;51.880;12.632;2022-10-16T16:23:28;20.32;61.60
68981;SHT35;56033;51.880;12.632;2022-10-16T16:26:10;20.42;61.57
68981;SHT35;56033;51.880;12.632;2022-10-16T16:28:36;20.51;61.99
68981;SHT35;56033;51.880;12.632;2022-10-16T16:31:02;20.53;62.04
68981;SHT35;56033;51.880;12.632;2022-10-16T16:33:27;20.62;62.07
68981;SHT35;56033;51.880;12.632;2022-10-16T16:36:01;20.65;62.24
68981;SHT35;56033;51.880;12.632;2022-10-16T16:38:27;20.70;62.39
68981;SHT35;56033;51.880;12.632;2022-10-16T16:40:53;20.72;64.45
68981;SHT35;56033;51.880;12.632;2022-10-16T16:43:21;20.70;62.76
68981;SHT35;56033;51.880;12.632;2022-10-16T16:45:47;20.75;63.47
68981;SHT35;56033;51.880;12.632;2022-10-16T16:48:12;20.77;63.23
68981;SHT35;56033;51.880;12.632;2022-10-16T16:50:38;20.81;62.62
68981;SHT35;56033;51.880;12.632;2022-10-16T16:53:03;20.83;62.64
68981;SHT35;56033;51.880;12.632;2022-10-16T16:55:28;20.84;62.61
68981;SHT35;56033;51.880;12.632;2022-10-16T16:57:54;20.86;62.64
68981;SHT35;56033;51.880;12.632;2022-10-16T17:00:19;20.81;62.64
68981;SHT35;56033;51.880;12.632;2022-10-16T17:02:50;20.84;62.67
68981;SHT35;56033;51.880;12.632;2022-10-16T17:05:16;20.87;62.70
68981;SHT35;56033;51.880;12.632;2022-10-16T17:07:42;20.87;62.63
68981;SHT35;56033;51.880;12.632;2022-10-16T17:10:08;20.90;62.55
68981;SHT35;56033;51.880;12.632;2022-10-16T17:12:34;20.94;62.45
68981;SHT35;56033;51.880;12.632;2022-10-16T17:14:59;20.97;62.36
68981;SHT35;56033;51.880;12.632;2022-10-16T17:17:25;21.04;61.87
68981;SHT35;56033;51.880;12.632;2022-10-16T17:19:50;20.96;62.28
68981;SHT35;56033;51.880;12.632;2022-10-16T17:22:16;21.01;62.15
68981;SHT35;56033;51.880;12.632;2022-10-16T17:24:42;21.01;62.20
68981;SHT35;56033;51.880;12.632;2022-10-16T17:27:08;21.07;62.15
68981;SHT35;56033;51.880;12.632;2022-10-16T17:29:34;21.04;62.17
68981;SHT35;56033;51.880;12.632;2022-10-16T17:31:59;21.11;62.03
68981;SHT35;56033;51.880;12.632;2022-10-16T17:34:25;21.21;61.69
68981;SHT35;56033;51.880;12.632;2022-10-16T17:36:50;21.25;61.63
68981;SHT35;56033;51.880;12.632;2022-10-16T17:39:16;21.28;61.53
68981;SHT35;56033;51.880;12.632;2022-10-16T17:41:42;21.30;61.49
68981;SHT35;56033;51.880;12.632;2022-10-16T17:44:09;21.31;61.46